Time;durP1;ratioP1;P1;durP2;ratioP2;P2;SDS_P1;SDS_P2;PMS_P1;PMS_P2;Temp;Humidity;BMP_temperature;BMP_pressure;BME280_temperature;BME280_humidity;BME280_pressure;Samples;Min_cycle;Max_cycle;Signal;HPM_P1;HPM_P2
2024/02/24 00:00:23;;;;;;;7.80;4.80;;;;;;;11.95;100.00;101775.16;10450102;28;20135;-79
2024/02/24 00:05:47;;;;;;;8.25;6.53;;;;;;;12.07;100.00;101771.97;10431131;28;20049;-79
2024/02/24 00:11:09;;;;;;;7.57;5.93;;;;;;;12.08;100.00;101768.47;10444053;28;20045;-79
2024/02/24 00:16:32;;;;;;;8.27;6.20;;;;;;;11.98;100.00;101764.66;10462640;28;20071;-79
2024/02/24 00:21:57;;;;;;;7.00;5.70;;;;;;;11.84;100.00;101766.94;10449022;28;20053;-79
2024/02/24 00:27:19;;;;;;;7.57;6.40;;;;;;;11.91;100.00;101762.72;10449052;28;20535;-80
2024/02/24 00:32:41;;;;;;;7.85;6.18;;;;;;;12.01;100.00;101772.69;10462721;28;20045;-79
2024/02/24 00:38:06;;;;;;;7.30;5.57;;;;;;;12.35;100.00;101770.03;10448703;28;20068;-79
2024/02/24 00:43:28;;;;;;;7.80;6.20;;;;;;;12.52;100.00;101772.19;10448740;28;20053;-79
2024/02/24 00:48:51;;;;;;;5.95;5.38;;;;;;;12.77;100.00;101764.84;10434516;28;20077;-79
2024/02/24 00:54:14;;;;;;;6.18;5.45;;;;;;;12.90;100.00;101754.53;10454942;28;20053;-79
2024/02/24 00:59:37;;;;;;;8.30;7.35;;;;;;;12.79;100.00;101743.69;10448089;28;20052;-79
2024/02/24 01:04:59;;;;;;;8.25;5.20;;;;;;;12.53;100.00;101751.06;10445021;28;20045;-79
2024/02/24 01:10:24;;;;;;;6.07;5.47;;;;;;;12.52;100.00;101751.00;10461571;28;20681;-79
2024/02/24 01:15:47;;;;;;;6.78;5.90;;;;;;;12.49;100.00;101746.53;10475191;28;20533;-79
2024/02/24 01:21:09;;;;;;;7.93;6.15;;;;;;;12.67;100.00;101754.00;10469093;28;20057;-78
2024/02/24 01:26:33;;;;;;;6.32;5.68;;;;;;;12.94;100.00;101745.75;10455837;28;20082;-79
2024/02/24 01:31:59;;;;;;;8.40;5.88;;;;;;;12.91;100.00;101740.41;10455036;28;20068;-79
2024/02/24 01:37:23;;;;;;;7.45;5.72;;;;;;;13.01;100.00;101734.44;10441136;28;20455;-80
2024/02/24 01:42:47;;;;;;;6.55;5.68;;;;;;;13.11;100.00;101734.69;10441279;28;20049;-79
2024/02/24 01:48:11;;;;;;;5.97;5.38;;;;;;;13.31;100.00;101719.22;10427971;28;20056;-79
2024/02/24 01:53:35;;;;;;;7.80;5.68;;;;;;;13.35;100.00;101714.84;10442139;28;20048;-79
2024/02/24 01:58:59;;;;;;;7.53;5.90;;;;;;;13.34;100.00;101708.66;10450357;28;20083;-79
2024/02/24 02:04:21;;;;;;;7.72;5.57;;;;;;;13.42;100.00;101703.50;10466549;28;20118;-79
2024/02/24 02:09:57;;;;;;;6.50;5.60;;;;;;;13.55;100.00;101708.16;10481940;28;20388;-79
2024/02/24 02:15:21;;;;;;;6.50;5.63;;;;;;;13.50;100.00;101709.84;10452219;28;20506;-77
2024/02/24 02:20:43;;;;;;;7.85;5.72;;;;;;;13.43;100.00;101710.59;10479233;28;20123;-78
2024/02/24 02:26:08;;;;;;;11.95;5.43;;;;;;;13.33;100.00;101724.53;10465926;28;20147;-77
2024/02/24 02:31:30;;;;;;;6.97;5.78;;;;;;;13.24;100.00;101727.91;10451731;28;20048;-77
2024/02/24 02:36:53;;;;;;;7.20;5.65;;;;;;;13.15;100.00;101725.94;10446686;28;20052;-77
2024/02/24 02:42:17;;;;;;;6.97;5.53;;;;;;;12.99;100.00;101722.94;10450137;28;20045;-76
2024/02/24 02:47:39;;;;;;;8.48;5.80;;;;;;;12.92;100.00;101729.84;10478452;28;20106;-77
2024/02/24 02:53:02;;;;;;;6.82;5.53;;;;;;;12.81;100.00;101736.66;10436052;28;20053;-76
2024/02/24 02:58:25;;;;;;;7.30;5.57;;;;;;;12.76;100.00;101723.31;10435778;28;20103;-76
2024/02/24 03:03:51;;;;;;;6.00;5.18;;;;;;;12.76;100.00;101717.13;10463528;28;20091;-79
2024/02/24 03:09:14;;;;;;;8.25;6.40;;;;;;;12.56;100.00;101721.97;10433693;28;20045;-79
2024/02/24 03:14:38;;;;;;;11.75;6.50;;;;;;;12.42;100.00;101720.75;10390964;28;1689026;-77
2024/02/24 03:20:00;;;;;;;6.90;5.65;;;;;;;12.39;100.00;101733.94;10454962;28;20048;-78
2024/02/24 03:25:23;;;;;;;13.52;9.57;;;;;;;12.38;100.00;101718.91;10451880;28;20372;-78
2024/02/24 03:30:47;;;;;;;34.65;21.52;;;;;;;12.09;100.00;101726.13;10436764;28;20107;-78
2024/02/24 03:36:13;;;;;;;38.42;24.15;;;;;;;11.74;100.00;101729.63;10429489;28;20041;-79
2024/02/24 03:41:35;;;;;;;10.77;8.50;;;;;;;11.58;100.00;101725.66;10449938;28;20111;-79
2024/02/24 03:46:59;;;;;;;9.23;7.10;;;;;;;11.45;100.00;101732.34;10436517;28;20058;-78
2024/02/24 03:52:22;;;;;;;13.52;11.88;;;;;;;11.39;100.00;101747.16;10436328;28;20095;-77
2024/02/24 03:57:44;;;;;;;16.95;12.50;;;;;;;11.28;100.00;101745.97;10478474;28;20491;-78
2024/02/24 04:03:08;;;;;;;8.82;6.18;;;;;;;11.24;100.00;101746.72;10436297;28;20041;-78
2024/02/24 04:08:30;;;;;;;8.85;7.20;;;;;;;11.18;100.00;101745.69;10433418;28;20144;-78
2024/02/24 04:13:53;;;;;;;7.50;6.15;;;;;;;11.14;100.00;101749.09;10448425;28;20447;-77
2024/02/24 04:19:17;;;;;;;9.80;7.25;;;;;;;11.07;100.00;101749.78;10463503;28;20049;-78
2024/02/24 04:24:41;;;;;;;7.30;5.88;;;;;;;10.96;100.00;101758.25;10435162;28;20123;-77
2024/02/24 04:30:04;;;;;;;6.97;5.70;;;;;;;10.88;100.00;101771.22;10448708;28;20053;-77
2024/02/24 04:35:28;;;;;;;8.07;6.78;;;;;;;10.89;100.00;101793.25;10449062;28;20040;-78
2024/02/24 04:40:50;;;;;;;11.93;9.48;;;;;;;10.90;100.00;101784.44;10434860;28;20045;-78
2024/02/24 04:46:13;;;;;;;12.80;8.05;;;;;;;11.00;100.00;101778.59;10434341;28;20052;-77
2024/02/24 04:51:37;;;;;;;9.88;8.45;;;;;;;11.06;100.00;101774.41;10448357;28;20045;-77
2024/02/24 04:56:59;;;;;;;8.80;6.30;;;;;;;11.00;100.00;101776.88;10461758;28;20044;-78
2024/02/24 05:02:22;;;;;;;23.65;21.33;;;;;;;11.10;100.00;101773.63;10433261;28;20044;-77
2024/02/24 05:07:46;;;;;;;22.85;20.73;;;;;;;11.18;100.00;101780.03;10432006;28;20045;-77
2024/02/24 05:13:08;;;;;;;9.05;8.25;;;;;;;11.21;100.00;101789.81;10444310;28;20453;-79
2024/02/24 05:18:31;;;;;;;17.17;11.48;;;;;;;11.34;100.00;101793.72;10455784;28;20052;-78
2024/02/24 05:23:55;;;;;;;20.92;13.18;;;;;;;11.46;100.00;101807.28;10448390;28;20140;-78
2024/02/24 05:29:17;;;;;;;10.82;8.52;;;;;;;11.65;100.00;101799.00;10444396;28;20483;-78
2024/02/24 05:34:40;;;;;;;8.57;6.95;;;;;;;12.09;100.00;101808.16;10434402;28;20413;-78
2024/02/24 05:40:04;;;;;;;6.10;4.57;;;;;;;15.06;100.00;101804.53;10475569;28;20091;-79
2024/02/24 05:45:27;;;;;;;13.63;9.02;;;;;;;17.59;100.00;101802.41;10447041;28;20173;-78
2024/02/24 05:50:50;;;;;;;6.18;5.07;;;;;;;19.31;89.33;101806.03;10447207;28;20052;-79
2024/02/24 05:56:14;;;;;;;6.30;3.70;;;;;;;20.79;72.06;101804.22;10453069;28;20049;-79
2024/02/24 06:01:36;;;;;;;3.05;2.75;;;;;;;22.06;61.83;101812.53;10436474;28;20056;-79
2024/02/24 06:06:59;;;;;;;5.43;4.45;;;;;;;23.01;56.14;101803.78;10454697;28;20758;-79
2024/02/24 06:12:23;;;;;;;58.33;51.40;;;;;;;24.14;52.09;101813.09;10450530;28;20048;-79
2024/02/24 06:17:45;;;;;;;151.35;98.30;;;;;;;24.83;48.85;101817.66;10483060;28;20049;-79
2024/02/24 06:23:08;;;;;;;9.00;6.30;;;;;;;25.18;45.40;101814.94;10440016;28;20052;-79
2024/02/24 06:28:32;;;;;;;331.30;240.25;;;;;;;25.62;43.59;101821.78;10440552;28;20145;-79
2024/02/24 06:33:55;;;;;;;5.85;3.10;;;;;;;25.81;42.14;101811.28;10426306;28;20045;-80
2024/02/24 06:39:17;;;;;;;196.45;131.48;;;;;;;26.80;40.00;101827.91;10435445;28;20045;-80
2024/02/24 06:44:41;;;;;;;2.60;2.15;;;;;;;27.88;38.00;101826.69;10439912;28;20041;-80
2024/02/24 06:50:04;;;;;;;18.55;14.10;;;;;;;28.66;35.19;101826.22;10453583;28;20056;-80
2024/02/24 06:55:27;;;;;;;5.03;3.00;;;;;;;29.01;34.82;101827.47;10439212;28;20140;-80
2024/02/24 07:00:51;;;;;;;3.20;2.63;;;;;;;30.38;33.22;101820.06;10451387;28;20076;-80
2024/02/24 07:06:13;;;;;;;4.47;3.55;;;;;;;31.31;31.50;101834.34;10449788;28;20111;-82
2024/02/24 07:11:36;;;;;;;8.00;5.22;;;;;;;32.10;30.48;101843.59;10432368;28;20049;-80
2024/02/24 07:17:00;;;;;;;9.50;5.85;;;;;;;32.55;29.01;101844.69;10465641;28;20049;-80
2024/02/24 07:22:23;;;;;;;12.90;8.73;;;;;;;32.41;28.69;101851.84;10444422;28;20053;-81
2024/02/24 07:27:48;;;;;;;7.72;6.47;;;;;;;32.79;27.89;101857.81;10460752;28;20580;-80
2024/02/24 07:33:13;;;;;;;5.43;4.18;;;;;;;33.17;27.45;101863.69;10431177;28;20058;-80
2024/02/24 07:38:40;;;;;;;9.45;5.80;;;;;;;33.37;27.50;101857.03;10501661;28;20114;-81
2024/02/24 07:44:02;;;;;;;7.80;5.97;;;;;;;32.55;28.44;101855.63;10449007;28;20056;-81
2024/02/24 07:49:26;;;;;;;4.95;3.78;;;;;;;32.44;28.36;101859.88;10494712;28;20135;-81
2024/02/24 07:54:49;;;;;;;6.22;3.08;;;;;;;33.38;27.29;101864.28;10479212;28;20040;-81
2024/02/24 08:00:12;;;;;;;4.82;3.08;;;;;;;33.67;27.26;101858.81;10474094;28;20069;-81
2024/02/24 08:05:36;;;;;;;4.57;3.47;;;;;;;33.72;27.01;101852.09;10475340;28;20116;-82
2024/02/24 08:10:59;;;;;;;3.38;2.97;;;;;;;33.76;27.58;101839.06;10475521;28;20049;-82
2024/02/24 08:16:23;;;;;;;5.90;3.22;;;;;;;33.36;27.85;101837.94;10434703;28;20521;-84
2024/02/24 08:21:47;;;;;;;3.58;3.08;;;;;;;33.64;26.91;101829.75;10475559;28;20080;-82
2024/02/24 08:27:09;;;;;;;6.53;3.45;;;;;;;34.04;26.41;101828.06;10478370;28;20052;-82
2024/02/24 08:32:32;;;;;;;7.97;5.03;;;;;;;34.75;25.94;101834.25;10439162;28;20040;-83
2024/02/24 08:37:56;;;;;;;6.55;4.00;;;;;;;35.25;25.30;101832.59;10450006;28;20049;-85
2024/02/24 08:43:18;;;;;;;5.45;4.10;;;;;;;35.14;25.55;101826.97;10477927;28;20049;-84
2024/02/24 08:48:40;;;;;;;9.88;6.53;;;;;;;35.17;25.92;101824.03;10449389;28;20057;-84
2024/02/24 08:54:04;;;;;;;7.07;5.30;;;;;;;35.19;25.79;101824.78;10449388;28;20106;-83
2024/02/24 08:59:27;;;;;;;4.88;4.25;;;;;;;35.35;26.04;101828.25;10449385;28;20543;-83
2024/02/24 09:04:49;;;;;;;7.40;4.68;;;;;;;35.08;26.21;101816.41;10449492;28;20131;-84
2024/02/24 09:10:13;;;;;;;8.95;6.25;;;;;;;35.19;26.04;101817.41;10447801;28;20052;-83
2024/02/24 09:15:37;;;;;;;8.95;6.00;;;;;;;35.15;25.09;101815.00;10457076;28;20140;-83
2024/02/24 09:21:00;;;;;;;8.60;5.20;;;;;;;35.28;25.61;101806.81;10434674;28;20053;-83
2024/02/24 09:26:24;;;;;;;6.45;3.35;;;;;;;35.42;25.73;101802.09;10476880;28;20175;-83
2024/02/24 09:31:47;;;;;;;4.28;3.28;;;;;;;35.46;26.30;101809.09;10420171;28;20033;-83
2024/02/24 09:37:09;;;;;;;4.97;3.95;;;;;;;34.34;27.51;101814.19;10453980;28;20056;-83
2024/02/24 09:42:33;;;;;;;4.22;3.72;;;;;;;34.42;27.44;101809.09;10455995;28;20501;-83
2024/02/24 09:47:57;;;;;;;6.18;5.57;;;;;;;34.36;27.58;101804.03;10444008;28;20566;-84
2024/02/24 09:53:20;;;;;;;3.80;3.50;;;;;;;34.69;27.70;101796.22;10458107;28;20037;-84
2024/02/24 09:58:45;;;;;;;4.80;3.60;;;;;;;34.34;28.08;101795.00;10439089;28;20044;-84
2024/02/24 10:04:08;;;;;;;5.78;4.05;;;;;;;33.85;28.80;101781.81;10485435;28;20079;-84
2024/02/24 10:09:30;;;;;;;4.65;2.90;;;;;;;34.41;28.18;101785.38;10442618;28;20061;-83
2024/02/24 10:14:55;;;;;;;4.35;3.88;;;;;;;34.88;27.66;101779.38;10436453;28;20053;-84
2024/02/24 10:20:17;;;;;;;5.90;3.85;;;;;;;35.05;27.13;101776.31;10436925;28;20383;-83
2024/02/24 10:25:40;;;;;;;5.88;2.80;;;;;;;33.13;25.20;101754.50;10455929;28;20422;-83
2024/02/24 10:31:04;;;;;;;4.00;2.65;;;;;;;31.54;25.95;101768.44;10455989;28;20049;-83
2024/02/24 10:36:29;;;;;;;5.13;2.28;;;;;;;32.18;25.41;101762.09;10469298;28;20060;-82
2024/02/24 10:41:53;;;;;;;2.88;2.28;;;;;;;31.27;25.25;101759.06;10454514;28;20053;-83
2024/02/24 10:47:17;;;;;;;3.08;2.38;;;;;;;31.63;24.94;101759.78;10439893;28;20545;-83
2024/02/24 10:52:43;;;;;;;4.35;2.03;;;;;;;31.69;24.95;101753.09;10440847;28;20045;-84
2024/02/24 10:58:06;;;;;;;5.60;3.42;;;;;;;29.84;26.23;101762.81;10467103;28;20122;-84
2024/02/24 11:03:31;;;;;;;3.53;2.50;;;;;;;28.78;26.57;101755.03;10454074;28;20041;-83
2024/02/24 11:08:54;;;;;;;4.13;2.85;;;;;;;28.78;27.79;101755.03;10428663;28;20056;-83
2024/02/24 11:14:17;;;;;;;4.60;2.75;;;;;;;29.05;27.37;101759.25;10430532;28;20576;-82
2024/02/24 11:19:46;;;;;;;1.70;1.60;;;;;;;28.88;26.99;101751.81;10481754;28;20053;-85
2024/02/24 11:25:08;;;;;;;5.35;2.63;;;;;;;28.20;28.11;101754.78;10467887;28;20048;-82
2024/02/24 11:30:50;;;;;;;4.05;2.13;;;;;;;27.41;28.37;101749.78;10438471;28;20566;-83
2024/02/24 11:36:15;;;;;;;2.45;1.60;;;;;;;26.62;29.67;101731.00;10453256;28;20132;-83
2024/02/24 11:41:40;;;;;;;3.65;2.00;;;;;;;25.36;31.52;101736.00;10436568;28;20384;-84
2024/02/24 11:47:03;;;;;;;6.07;1.77;;;;;;;25.00;31.97;101737.09;10466279;28;20160;-83
2024/02/24 11:52:28;;;;;;;3.05;2.22;;;;;;;24.63;33.04;101746.16;10452252;28;20049;-82
2024/02/24 11:57:51;;;;;;;5.90;3.47;;;;;;;24.40;34.73;101739.59;10465314;28;20155;-83
2024/02/24 12:03:15;;;;;;;5.15;3.45;;;;;;;23.87;35.99;101749.88;10437220;28;20099;-81
2024/02/24 12:08:42;;;;;;;3.28;2.70;;;;;;;23.57;36.80;101747.84;10428138;28;20041;-78
2024/02/24 12:14:04;;;;;;;2.38;2.00;;;;;;;23.21;36.79;101741.44;10448668;28;20053;-83
2024/02/24 12:19:27;;;;;;;3.05;2.40;;;;;;;23.16;37.94;101732.56;10431276;28;20056;-83
2024/02/24 12:24:51;;;;;;;4.35;2.50;;;;;;;22.70;38.02;101724.47;10460481;28;20037;-85
2024/02/24 12:30:14;;;;;;;4.53;2.80;;;;;;;22.71;39.42;101710.94;10434720;28;20115;-83
2024/02/24 12:35:38;;;;;;;6.43;2.90;;;;;;;22.65;38.64;101692.22;10435549;28;20052;-82
2024/02/24 12:41:07;;;;;;;3.40;2.00;;;;;;;22.82;37.11;101700.03;10428811;28;20049;-84
2024/02/24 12:46:30;;;;;;;2.00;1.80;;;;;;;22.81;37.21;101696.44;10461009;28;20053;-83
2024/02/24 12:51:54;;;;;;;4.50;2.00;;;;;;;22.63;36.42;101692.28;10491316;28;20109;-83
2024/02/24 12:57:18;;;;;;;4.45;1.77;;;;;;;22.62;36.73;101693.19;10495604;28;20539;-83
2024/02/24 13:02:40;;;;;;;3.63;2.22;;;;;;;22.62;36.59;101695.00;10456874;28;20057;-86
2024/02/24 13:08:02;;;;;;;2.55;1.65;;;;;;;22.70;36.89;101701.13;10449049;28;20323;-81
2024/02/24 13:13:26;;;;;;;2.72;2.22;;;;;;;22.71;36.67;101708.25;10457564;28;20059;-82
2024/02/24 13:18:49;;;;;;;3.22;2.75;;;;;;;22.75;36.86;101695.69;10448174;28;20048;-81
2024/02/24 13:24:11;;;;;;;3.92;1.90;;;;;;;22.61;35.97;101701.28;10492109;28;20961;-79
2024/02/24 13:29:36;;;;;;;2.33;1.60;;;;;;;22.65;35.32;101690.44;10455711;28;20049;-80
2024/02/24 13:34:58;;;;;;;3.10;1.60;;;;;;;22.55;35.85;101693.34;10442892;28;20554;-80
2024/02/24 13:40:21;;;;;;;2.85;1.70;;;;;;;22.39;37.30;101697.22;10455623;28;20045;-82
2024/02/24 13:45:47;;;;;;;3.70;2.38;;;;;;;22.15;39.01;101694.06;10456517;28;20452;-81
2024/02/24 13:51:10;;;;;;;4.43;2.92;;;;;;;21.92;40.80;101692.63;10455300;28;20114;-81
2024/02/24 13:56:32;;;;;;;2.60;2.28;;;;;;;21.72;41.58;101695.63;10469396;28;20059;-81
2024/02/24 14:01:57;;;;;;;4.82;3.45;;;;;;;21.46;44.37;101694.19;10455650;28;20056;-82
2024/02/24 14:07:19;;;;;;;7.25;4.15;;;;;;;21.21;47.51;101700.81;10468976;28;20045;-81
2024/02/24 14:12:42;;;;;;;3.20;2.90;;;;;;;21.06;50.14;101698.31;10454729;28;20499;-85
2024/02/24 14:18:06;;;;;;;4.45;3.67;;;;;;;20.72;55.92;101697.84;10455439;28;20072;-80
2024/02/24 14:23:29;;;;;;;4.28;3.55;;;;;;;20.61;59.47;101703.28;10425660;28;20053;-79
2024/02/24 14:28:53;;;;;;;4.03;2.90;;;;;;;20.32;64.43;101702.69;10452650;28;20079;-85
2024/02/24 14:34:17;;;;;;;4.78;3.08;;;;;;;20.27;66.18;101712.56;10456258;28;20056;-83
2024/02/24 14:39:40;;;;;;;5.63;3.30;;;;;;;19.92;75.21;101714.63;10468532;28;20052;-83
2024/02/24 14:45:03;;;;;;;5.15;3.65;;;;;;;19.59;80.09;101721.13;10468048;28;20049;-84
2024/02/24 14:50:27;;;;;;;4.57;3.80;;;;;;;19.47;86.38;101730.13;10467220;28;20049;-81
2024/02/24 14:55:51;;;;;;;4.72;3.90;;;;;;;19.33;93.17;101729.25;10453378;28;20060;-81
2024/02/24 15:01:13;;;;;;;5.30;3.40;;;;;;;19.19;92.10;101723.06;10440145;28;20052;-81
2024/02/24 15:06:44;;;;;;;7.45;4.60;;;;;;;19.13;90.80;101718.63;10440147;28;20045;-82
2024/02/24 15:12:07;;;;;;;4.90;3.85;;;;;;;18.95;92.18;101727.63;10466487;28;20048;-80
2024/02/24 15:17:29;;;;;;;3.85;3.13;;;;;;;18.80;94.73;101719.66;10431228;28;20096;-81
2024/02/24 15:22:53;;;;;;;5.93;3.65;;;;;;;18.64;94.24;101720.59;10426312;28;20526;-81
2024/02/24 15:28:16;;;;;;;7.25;4.40;;;;;;;18.53;97.22;101717.00;10453323;28;20057;-81
2024/02/24 15:33:38;;;;;;;4.85;4.10;;;;;;;18.41;100.00;101725.03;10451710;28;20084;-81
2024/02/24 15:39:04;;;;;;;4.50;4.10;;;;;;;18.22;100.00;101721.50;10439571;28;20387;-82
2024/02/24 15:44:26;;;;;;;5.88;4.32;;;;;;;18.01;100.00;101725.03;10466227;28;20499;-82
2024/02/24 15:49:49;;;;;;;5.22;4.43;;;;;;;17.77;100.00;101733.94;10452099;28;20056;-83
2024/02/24 15:55:13;;;;;;;7.70;4.70;;;;;;;17.69;100.00;101735.69;10479749;28;20048;-80
2024/02/24 16:00:36;;;;;;;4.82;4.22;;;;;;;17.56;100.00;101730.28;10451403;28;20402;-82
2024/02/24 16:05:59;;;;;;;6.57;5.57;;;;;;;17.35;100.00;101732.00;10437447;28;20040;-81
2024/02/24 16:11:23;;;;;;;10.65;6.28;;;;;;;17.14;100.00;101738.16;10461267;28;20045;-81
2024/02/24 16:16:45;;;;;;;7.47;6.10;;;;;;;16.93;100.00;101740.75;10449757;28;20564;-81
2024/02/24 16:22:09;;;;;;;7.93;6.40;;;;;;;16.79;100.00;101746.88;10448495;28;20040;-82
2024/02/24 16:27:32;;;;;;;7.38;6.25;;;;;;;16.54;100.00;101751.97;10449387;28;20053;-81
2024/02/24 16:32:55;;;;;;;9.32;7.00;;;;;;;16.43;100.00;101753.69;10443527;28;20044;-84
2024/02/24 16:38:18;;;;;;;8.95;7.03;;;;;;;16.38;100.00;101765.19;10434587;28;20103;-79
2024/02/24 16:43:42;;;;;;;7.88;7.13;;;;;;;16.32;100.00;101766.94;10436003;28;20052;-78
2024/02/24 16:49:05;;;;;;;6.93;6.15;;;;;;;16.34;100.00;101766.97;10421966;28;20102;-78
2024/02/24 16:54:28;;;;;;;8.52;6.55;;;;;;;16.31;100.00;101777.59;10456971;28;20055;-80
2024/02/24 16:59:52;;;;;;;9.00;5.82;;;;;;;16.34;100.00;101783.81;10419442;28;20045;-81
2024/02/24 17:05:14;;;;;;;6.32;5.72;;;;;;;16.26;100.00;101787.31;10457838;28;20148;-79
2024/02/24 17:10:39;;;;;;;7.43;5.72;;;;;;;16.20;100.00;101787.25;10434126;28;20056;-80
2024/02/24 17:16:05;;;;;;;6.97;5.55;;;;;;;16.09;100.00;101784.47;10443956;28;20507;-79
2024/02/24 17:21:27;;;;;;;9.25;6.07;;;;;;;15.97;100.00;101786.13;10446918;28;20053;-80
2024/02/24 17:26:54;;;;;;;6.60;5.85;;;;;;;15.92;100.00;101776.34;10462919;28;20052;-81
2024/02/24 17:32:18;;;;;;;8.77;6.57;;;;;;;15.81;100.00;101782.44;10454464;28;20060;-81
2024/02/24 17:37:41;;;;;;;7.72;5.78;;;;;;;15.75;100.00;101782.38;10463641;28;20053;-81
2024/02/24 17:43:04;;;;;;;10.07;8.20;;;;;;;15.68;100.00;101792.06;10448856;28;20057;-80
2024/02/24 17:48:28;;;;;;;8.45;6.78;;;;;;;15.61;100.00;101795.53;10462727;28;20087;-81
2024/02/24 17:53:51;;;;;;;7.13;6.20;;;;;;;15.59;100.00;101793.72;10448438;28;20049;-81
2024/02/24 17:59:13;;;;;;;8.18;6.55;;;;;;;15.47;100.00;101803.31;10451811;28;20108;-80
2024/02/24 18:04:40;;;;;;;7.25;6.38;;;;;;;15.37;100.00;101795.19;10470196;28;20057;-80
2024/02/24 18:10:03;;;;;;;12.43;11.27;;;;;;;15.30;100.00;101795.97;10482280;28;20049;-80
2024/02/24 18:15:26;;;;;;;6.65;5.32;;;;;;;15.25;100.00;101800.34;10482025;28;20057;-81
2024/02/24 18:20:50;;;;;;;6.43;5.85;;;;;;;15.26;100.00;101799.47;10454905;28;20053;-82
2024/02/24 18:26:12;;;;;;;8.65;5.72;;;;;;;15.29;100.00;101803.09;10483174;28;20038;-81
2024/02/24 18:31:35;;;;;;;9.18;5.80;;;;;;;15.23;100.00;101802.13;10490257;28;20117;-81
2024/02/24 18:36:59;;;;;;;7.57;5.95;;;;;;;15.14;100.00;101817.06;10479622;28;20049;-81
2024/02/24 18:42:22;;;;;;;6.80;5.95;;;;;;;15.15;100.00;101820.63;10459900;28;20525;-80
2024/02/24 18:47:45;;;;;;;8.07;6.43;;;;;;;15.09;100.00;101821.44;10455044;28;20045;-81
2024/02/24 18:53:09;;;;;;;9.65;6.60;;;;;;;15.10;100.00;101825.88;10438319;28;20487;-81
2024/02/24 18:58:31;;;;;;;5.80;5.20;;;;;;;15.12;100.00;101824.13;10412768;28;20561;-81
2024/02/24 19:03:53;;;;;;;7.22;5.68;;;;;;;15.01;100.00;101825.75;10439852;28;20499;-82
2024/02/24 19:09:17;;;;;;;6.55;5.60;;;;;;;14.99;100.00;101826.59;10413504;28;20076;-82
2024/02/24 19:14:40;;;;;;;9.07;5.72;;;;;;;14.86;100.00;101838.81;10450090;28;20060;-81
2024/02/24 19:20:04;;;;;;;7.45;5.95;;;;;;;14.89;100.00;101837.97;10478908;28;20055;-82
2024/02/24 19:25:28;;;;;;;6.00;5.40;;;;;;;14.95;100.00;101841.63;10451206;28;20049;-81
2024/02/24 19:30:50;;;;;;;6.68;5.97;;;;;;;15.02;100.00;101848.81;10461378;28;20514;-80
2024/02/24 19:36:13;;;;;;;8.73;5.45;;;;;;;15.01;100.00;101854.09;10453739;28;20076;-81
2024/02/24 19:41:37;;;;;;;7.10;5.10;;;;;;;14.99;100.00;101845.19;10448080;28;20048;-80
2024/02/24 19:46:59;;;;;;;5.70;5.10;;;;;;;14.80;100.00;101844.03;10410177;28;20446;-82
2024/02/24 19:52:22;;;;;;;6.00;5.40;;;;;;;14.77;100.00;101848.41;10383675;28;20046;-80
2024/02/24 19:57:46;;;;;;;5.15;4.75;;;;;;;14.67;100.00;101842.06;10397787;28;20060;-81
2024/02/24 20:03:09;;;;;;;6.63;4.60;;;;;;;14.62;100.00;101851.72;10411666;28;20045;-80
2024/02/24 20:08:31;;;;;;;6.78;4.97;;;;;;;14.73;100.00;101852.78;10438861;28;20045;-81
2024/02/24 20:13:55;;;;;;;5.63;5.00;;;;;;;14.71;100.00;101836.78;10437378;28;20061;-80
2024/02/24 20:19:18;;;;;;;4.95;4.50;;;;;;;14.61;100.00;101831.31;10486330;28;20041;-81
2024/02/24 20:24:40;;;;;;;6.47;5.88;;;;;;;14.52;100.00;101820.53;10521038;28;20052;-81
2024/02/24 20:30:04;;;;;;;6.45;5.63;;;;;;;14.33;100.00;101809.56;10520636;28;20052;-80
2024/02/24 20:35:27;;;;;;;5.68;4.80;;;;;;;14.34;100.00;101806.03;10482446;28;20045;-81
2024/02/24 20:40:53;;;;;;;5.10;4.60;;;;;;;14.25;100.00;101810.28;10438849;28;20049;-82
2024/02/24 20:46:18;;;;;;;5.47;4.63;;;;;;;14.23;100.00;101810.28;10437497;28;20049;-80
2024/02/24 20:51:40;;;;;;;5.63;4.30;;;;;;;14.30;100.00;101808.63;10437655;28;20081;-80
2024/02/24 20:57:03;;;;;;;5.55;3.97;;;;;;;14.23;100.00;101810.28;10437329;28;20084;-81
2024/02/24 21:02:27;;;;;;;5.45;4.88;;;;;;;14.39;100.00;101807.91;10437129;28;20136;-79
2024/02/24 21:07:49;;;;;;;4.93;3.63;;;;;;;14.42;100.00;101806.22;10438058;28;20100;-82
2024/02/24 21:13:12;;;;;;;5.10;4.57;;;;;;;14.49;100.00;101808.09;10436375;28;20152;-82
2024/02/24 21:18:36;;;;;;;5.13;4.13;;;;;;;14.54;100.00;101810.81;10473440;28;20057;-83
2024/02/24 21:23:58;;;;;;;4.00;3.60;;;;;;;14.58;100.00;101808.22;10450197;28;20045;-82
2024/02/24 21:29:21;;;;;;;5.15;3.90;;;;;;;14.67;100.00;101805.72;10409524;28;20388;-82
2024/02/24 21:34:45;;;;;;;5.30;3.55;;;;;;;14.68;100.00;101804.88;10415541;28;20052;-82
2024/02/24 21:40:08;;;;;;;4.97;4.15;;;;;;;14.89;100.00;101792.78;10439973;28;20049;-80
2024/02/24 21:45:31;;;;;;;4.60;4.20;;;;;;;15.07;100.00;101785.94;10449984;28;20059;-80
2024/02/24 21:50:55;;;;;;;6.10;5.30;;;;;;;15.08;100.00;101781.53;10450615;28;20049;-80
2024/02/24 21:56:17;;;;;;;6.75;5.30;;;;;;;15.13;100.00;101771.81;10457606;28;20048;-81
2024/02/24 22:01:40;;;;;;;6.68;6.07;;;;;;;15.12;100.00;101773.59;10441177;28;20503;-79
2024/02/24 22:07:04;;;;;;;8.77;5.72;;;;;;;15.14;100.00;101781.59;10430440;28;20407;-80
2024/02/24 22:12:27;;;;;;;6.88;5.80;;;;;;;15.18;100.00;101775.44;10401288;28;20049;-81
2024/02/24 22:17:49;;;;;;;7.60;5.65;;;;;;;15.26;100.00;101780.84;10484946;28;20055;-80
2024/02/24 22:23:15;;;;;;;4.80;4.30;;;;;;;15.39;100.00;101778.38;10497380;28;20501;-80
2024/02/24 22:28:37;;;;;;;6.00;4.40;;;;;;;15.44;100.00;101775.75;10511060;28;20060;-79
2024/02/24 22:34:00;;;;;;;4.00;3.60;;;;;;;15.45;100.00;101774.88;10479071;28;20813;-79
2024/02/24 22:39:24;;;;;;;4.50;3.35;;;;;;;15.47;100.00;101766.06;10447573;28;20079;-80
2024/02/24 22:44:47;;;;;;;4.88;3.92;;;;;;;15.40;100.00;101763.31;10453996;28;20127;-80
2024/02/24 22:50:09;;;;;;;4.15;3.60;;;;;;;15.34;100.00;101752.59;10432484;28;20127;-81
2024/02/24 22:55:34;;;;;;;4.82;4.10;;;;;;;15.28;100.00;101760.50;10471448;28;20041;-80
2024/02/24 23:00:56;;;;;;;5.45;3.72;;;;;;;15.24;100.00;101766.63;10476556;28;20497;-81
2024/02/24 23:06:19;;;;;;;5.80;3.70;;;;;;;15.23;100.00;101760.41;10486953;28;20055;-80
2024/02/24 23:11:43;;;;;;;5.55;3.60;;;;;;;15.15;100.00;101757.69;10507410;28;20489;-80
2024/02/24 23:17:06;;;;;;;4.80;3.90;;;;;;;15.15;100.00;101756.78;10466324;28;20057;-80
2024/02/24 23:22:28;;;;;;;6.45;3.63;;;;;;;15.14;100.00;101749.69;10437857;28;20049;-80
2024/02/24 23:27:52;;;;;;;4.35;3.30;;;;;;;15.14;100.00;101752.34;10452326;28;20045;-80
2024/02/24 23:33:14;;;;;;;5.30;3.88;;;;;;;15.16;100.00;101759.44;10439264;28;20827;-81
2024/02/24 23:38:37;;;;;;;4.53;3.30;;;;;;;15.28;98.27;101750.75;10452343;28;20040;-80
2024/02/24 23:44:01;;;;;;;4.78;3.90;;;;;;;15.13;98.83;101743.47;10461124;28;20128;-80
2024/02/24 23:49:25;;;;;;;4.05;3.42;;;;;;;15.05;99.15;101734.50;10439630;28;20152;-81
2024/02/24 23:54:48;;;;;;;4.88;3.63;;;;;;;14.98;100.00;101723.75;10475972;28;20056;-81
